Time;durP1;ratioP1;P1;durP2;ratioP2;P2;SDS_P1;SDS_P2;PMS_P1;PMS_P2;Temp;Humidity;BMP_temperature;BMP_pressure;BME280_temperature;BME280_humidity;BME280_pressure;Samples;Min_cycle;Max_cycle;Signal;HPM_P1;HPM_P2
2024/04/11 00:00:48;;;;;;;17.00;11.20;;;;;;;10.28;66.61;101324.10;217413;1259;140506;-67
2024/04/11 00:05:51;;;;;;;30.60;12.10;;;;;;;10.10;66.99;101331.09;218353;1259;141654;-69
2024/04/11 00:10:53;;;;;;;17.80;9.40;;;;;;;9.93;67.46;101338.61;217353;1259;141229;-69
2024/04/11 00:15:56;;;;;;;14.60;6.10;;;;;;;9.77;67.48;101349.86;217930;1257;141118;-69
2024/04/11 00:20:58;;;;;;;17.50;9.10;;;;;;;9.62;68.25;101354.17;218288;1257;141125;-70
2024/04/11 00:26:01;;;;;;;23.60;12.30;;;;;;;9.47;68.53;101354.01;217338;1257;142482;-70
2024/04/11 00:31:03;;;;;;;26.40;13.20;;;;;;;9.32;68.69;101351.50;217470;1257;141062;-68
2024/04/11 00:36:05;;;;;;;16.00;8.50;;;;;;;9.16;68.82;101345.09;217145;1260;140238;-70
2024/04/11 00:41:08;;;;;;;6.50;4.50;;;;;;;8.98;69.08;101348.30;217431;1259;140040;-68
2024/04/11 00:46:10;;;;;;;6.00;3.20;;;;;;;8.81;69.26;101347.27;217868;1256;141769;-70
2024/04/11 00:51:12;;;;;;;4.50;2.90;;;;;;;8.65;69.49;101350.72;217554;1257;139962;-69
2024/04/11 00:56:14;;;;;;;4.80;2.50;;;;;;;8.52;69.82;101343.77;218057;1255;142656;-71
2024/04/11 01:01:16;;;;;;;2.60;2.30;;;;;;;8.32;69.68;101330.14;217684;1257;141400;-70
2024/04/11 01:06:18;;;;;;;6.10;3.10;;;;;;;8.10;70.19;101335.69;217384;1259;140428;-69
2024/04/11 01:11:20;;;;;;;4.60;3.40;;;;;;;7.94;70.85;101336.79;218054;1257;139947;-69
2024/04/11 01:16:22;;;;;;;2.70;2.50;;;;;;;7.86;70.98;101339.38;217905;1259;140762;-69
2024/04/11 01:21:26;;;;;;;3.10;2.60;;;;;;;7.80;71.52;101337.42;217774;1257;139947;-69
2024/04/11 01:26:29;;;;;;;4.30;2.40;;;;;;;7.73;71.50;101338.89;217645;1257;139521;-69
2024/04/11 01:31:30;;;;;;;3.80;2.40;;;;;;;7.52;71.23;101334.96;217313;1257;139881;-70
2024/04/11 01:36:33;;;;;;;3.50;3.10;;;;;;;7.32;71.46;101334.41;219973;1258;139726;-69
2024/04/11 01:41:38;;;;;;;4.70;3.40;;;;;;;7.20;72.16;101342.67;217351;1261;139699;-69
2024/04/11 01:46:40;;;;;;;9.60;3.40;;;;;;;7.13;72.38;101342.80;217534;1260;140059;-69
2024/04/11 01:51:43;;;;;;;8.00;4.10;;;;;;;7.06;72.98;101344.58;217399;1257;140840;-69
2024/04/11 01:56:45;;;;;;;3.50;2.50;;;;;;;6.99;72.62;101356.19;217447;1257;139748;-70
2024/04/11 02:01:47;;;;;;;3.80;2.60;;;;;;;6.83;72.46;101354.52;217687;1257;230518;-69
2024/04/11 02:06:51;;;;;;;6.10;4.10;;;;;;;6.69;73.24;101359.78;217488;1260;139921;-71
2024/04/11 02:11:57;;;;;;;5.20;3.70;;;;;;;6.60;73.40;101368.34;217401;1257;139974;-68
2024/04/11 02:16:59;;;;;;;4.20;2.80;;;;;;;6.45;73.04;101374.58;217583;1257;140031;-69
2024/04/11 02:22:02;;;;;;;4.80;2.90;;;;;;;6.35;73.98;101376.60;217354;1257;139456;-70
2024/04/11 02:27:04;;;;;;;2.60;2.40;;;;;;;6.30;74.12;101378.31;217457;1261;139662;-68
2024/04/11 02:32:06;;;;;;;13.00;4.50;;;;;;;6.28;74.42;101378.75;217181;1257;139726;-68
2024/04/11 02:37:08;;;;;;;4.20;3.80;;;;;;;6.19;74.08;101376.95;217472;1258;141035;-68
2024/04/11 02:42:10;;;;;;;2.70;2.50;;;;;;;6.09;74.48;101379.95;218591;1258;139885;-70
2024/04/11 02:47:15;;;;;;;4.70;3.70;;;;;;;6.04;74.83;101383.78;218115;1257;140177;-69
2024/04/11 02:52:17;;;;;;;4.40;3.20;;;;;;;5.94;74.70;101383.52;217546;1257;140631;-69
2024/04/11 02:57:21;;;;;;;3.20;2.40;;;;;;;5.84;74.79;101389.11;217467;1257;140888;-68
2024/04/11 03:02:28;;;;;;;6.20;3.10;;;;;;;5.79;75.16;101388.63;217512;1257;142292;-69
2024/04/11 03:07:31;;;;;;;3.00;2.70;;;;;;;5.69;75.06;101390.58;217518;1262;140113;-69
2024/04/11 03:12:33;;;;;;;2.60;2.40;;;;;;;5.58;74.84;101394.95;217325;1257;139952;-69
2024/04/11 03:17:38;;;;;;;2.60;2.40;;;;;;;5.42;74.65;101397.30;217843;1257;140347;-69
2024/04/11 03:22:41;;;;;;;4.50;3.30;;;;;;;5.22;75.24;101401.35;218414;1262;139738;-69
2024/04/11 03:27:42;;;;;;;4.50;2.60;;;;;;;5.13;75.31;101401.75;217448;1261;142669;-68
2024/04/11 03:32:44;;;;;;;4.20;2.80;;;;;;;5.04;75.63;101404.05;218233;1258;140214;-69
2024/04/11 03:37:49;;;;;;;3.40;3.10;;;;;;;4.95;75.56;101403.04;216999;1257;140900;-68
2024/04/11 03:42:51;;;;;;;5.40;3.30;;;;;;;4.87;75.93;101407.80;217060;1258;140074;-68
2024/04/11 03:47:53;;;;;;;5.40;3.20;;;;;;;4.78;75.91;101403.65;217990;1261;140098;-68
2024/04/11 03:52:56;;;;;;;6.10;3.50;;;;;;;4.67;76.14;101405.92;217169;1261;140075;-68
2024/04/11 03:58:01;;;;;;;4.50;4.20;;;;;;;4.56;75.98;101412.89;216780;1261;140015;-68
2024/04/11 04:03:02;;;;;;;4.60;3.50;;;;;;;4.52;76.35;101414.05;216997;1261;140397;-68
2024/04/11 04:08:04;;;;;;;8.40;4.60;;;;;;;4.47;76.81;101418.23;217031;1263;140928;-70
2024/04/11 04:13:09;;;;;;;12.60;4.60;;;;;;;4.46;76.66;101423.80;217408;1259;139509;-68
2024/04/11 04:18:12;;;;;;;7.20;3.00;;;;;;;4.46;76.97;101429.90;216896;1261;153985;-69
2024/04/11 04:23:13;;;;;;;6.20;4.60;;;;;;;4.48;77.04;101432.90;217164;1261;141238;-67
2024/04/11 04:28:18;;;;;;;4.00;3.40;;;;;;;4.55;77.48;101429.27;217157;1261;139816;-68
2024/04/11 04:33:19;;;;;;;5.20;4.00;;;;;;;4.54;77.26;101436.33;217379;1257;140261;-69
2024/04/11 04:38:21;;;;;;;12.30;4.50;;;;;;;4.58;77.43;101440.01;217449;1259;140734;-68
2024/04/11 04:43:24;;;;;;;10.40;4.30;;;;;;;4.61;77.32;101442.85;217312;1260;141064;-69
2024/04/11 04:48:27;;;;;;;7.50;3.90;;;;;;;4.67;77.64;101443.14;217158;1261;140393;-67
2024/04/11 04:53:29;;;;;;;13.10;8.20;;;;;;;4.83;78.12;101445.56;217233;1261;139803;-68
2024/04/11 04:58:31;;;;;;;18.60;12.00;;;;;;;5.03;78.23;101452.48;217353;1260;140644;-66
2024/04/11 05:03:34;;;;;;;13.20;9.50;;;;;;;5.23;78.72;101456.74;217686;1257;140779;-68
2024/04/11 05:08:36;;;;;;;11.80;9.60;;;;;;;5.39;78.40;101458.29;218029;1260;141122;-66
2024/04/11 05:13:38;;;;;;;11.00;8.60;;;;;;;5.50;78.65;101457.52;219675;1257;141284;-67
2024/04/11 05:18:41;;;;;;;7.30;5.80;;;;;;;5.66;78.77;101460.49;219085;1259;139973;-68
2024/04/11 05:23:42;;;;;;;7.00;6.40;;;;;;;5.89;79.17;101466.56;217740;1257;140078;-68
2024/04/11 05:28:44;;;;;;;7.60;5.40;;;;;;;6.16;79.43;101471.45;218213;1263;141582;-64
2024/04/11 05:33:51;;;;;;;7.80;5.00;;;;;;;6.37;79.39;101477.01;217148;1260;139703;-68
2024/04/11 05:38:53;;;;;;;18.90;7.90;;;;;;;6.52;79.80;101478.43;217276;1257;140903;-68
2024/04/11 05:43:56;;;;;;;8.10;4.80;;;;;;;6.72;80.45;101474.08;217202;1258;141277;-68
2024/04/11 05:48:57;;;;;;;8.70;7.50;;;;;;;6.93;80.10;101476.15;217158;1259;139636;-68
2024/04/11 05:53:59;;;;;;;8.80;6.70;;;;;;;7.18;80.61;101478.20;217034;1260;140330;-69
2024/04/11 05:59:01;;;;;;;7.80;6.30;;;;;;;7.52;81.04;101487.67;217147;1258;141068;-68
2024/04/11 06:04:05;;;;;;;9.40;6.80;;;;;;;7.98;80.83;101484.10;217223;1257;139599;-67
2024/04/11 06:09:08;;;;;;;9.00;7.30;;;;;;;8.27;81.05;101487.36;217394;1258;140091;-68
2024/04/11 06:14:10;;;;;;;7.10;6.10;;;;;;;8.52;81.06;101488.81;217234;1263;140250;-68
2024/04/11 06:19:12;;;;;;;9.60;6.50;;;;;;;8.74;81.04;101487.91;216995;1260;140453;-71
2024/04/11 06:24:18;;;;;;;9.30;4.60;;;;;;;8.96;80.84;101491.86;217710;1260;140267;-71
2024/04/11 06:29:22;;;;;;;7.80;4.90;;;;;;;9.14;80.33;101493.16;217360;1258;140918;-71
2024/04/11 06:34:25;;;;;;;4.90;4.10;;;;;;;9.34;79.56;101492.09;217207;1258;140532;-72
2024/04/11 06:39:29;;;;;;;8.30;5.10;;;;;;;9.65;78.49;101492.34;218154;1261;140523;-73
2024/04/11 06:44:32;;;;;;;5.30;2.60;;;;;;;10.09;77.81;101495.39;218450;1258;139522;-70
2024/04/11 06:49:35;;;;;;;3.40;2.00;;;;;;;10.79;76.08;101503.25;218843;1257;140178;-72
2024/04/11 06:54:40;;;;;;;3.90;3.10;;;;;;;12.01;74.67;101502.83;220001;1259;140247;-70
2024/04/11 06:59:44;;;;;;;7.10;3.30;;;;;;;13.08;73.15;101505.15;217504;1257;141718;-70
2024/04/11 07:04:46;;;;;;;2.50;1.80;;;;;;;13.59;70.61;101504.14;219075;1257;140641;-71
2024/04/11 07:09:48;;;;;;;4.60;2.50;;;;;;;14.02;69.24;101507.13;218655;1257;140271;-70
2024/04/11 07:14:51;;;;;;;2.00;1.80;;;;;;;14.81;67.65;101503.98;218493;1257;140170;-70
2024/04/11 07:19:58;;;;;;;3.30;2.70;;;;;;;15.97;65.79;101508.94;217627;1257;141964;-70
2024/04/11 07:25:01;;;;;;;3.60;2.10;;;;;;;17.07;65.06;101502.98;217502;1257;140111;-70
2024/04/11 07:30:11;;;;;;;1.70;1.50;;;;;;;17.93;63.54;101509.79;217349;1260;139505;-70
2024/04/11 07:35:15;;;;;;;2.50;2.00;;;;;;;18.27;61.59;101506.05;217573;1257;139316;-71
2024/04/11 07:40:32;;;;;;;6.40;2.10;;;;;;;18.64;60.60;101505.95;218389;1260;140628;-70
2024/04/11 07:45:36;;;;;;;3.30;1.90;;;;;;;18.98;60.08;101499.15;217381;1260;140961;-70
2024/04/11 07:50:38;;;;;;;3.00;1.40;;;;;;;19.15;58.14;101496.70;217425;1258;139756;-69
2024/04/11 07:55:44;;;;;;;5.90;2.30;;;;;;;19.22;57.89;101493.71;217511;1258;141262;-70
2024/04/11 08:00:50;;;;;;;2.30;2.10;;;;;;;19.37;57.02;101498.40;217588;1260;140104;-70
2024/04/11 08:05:52;;;;;;;2.80;2.50;;;;;;;19.12;55.22;101497.58;217850;1260;140016;-69
2024/04/11 08:11:02;;;;;;;5.00;2.20;;;;;;;19.18;55.29;101496.64;217528;1257;140899;-73
2024/04/11 08:16:07;;;;;;;4.50;2.70;;;;;;;19.32;55.07;101492.27;217888;1259;140933;-70
2024/04/11 08:21:09;;;;;;;3.40;3.20;;;;;;;19.38;54.61;101502.46;217777;1257;141046;-69
2024/04/11 08:26:12;;;;;;;6.90;3.20;;;;;;;19.58;54.34;101499.19;217556;1257;139335;-71
2024/04/11 08:31:15;;;;;;;5.70;3.30;;;;;;;19.67;53.48;101499.19;218767;1259;140452;-69
2024/04/11 08:36:18;;;;;;;5.80;2.60;;;;;;;19.99;54.12;101500.05;217991;1257;140123;-70
2024/04/11 08:41:20;;;;;;;6.30;2.40;;;;;;;20.43;53.10;101497.14;217501;1257;139448;-72
2024/04/11 08:46:24;;;;;;;6.10;3.90;;;;;;;20.44;50.76;101494.67;219110;1256;140188;-71
2024/04/11 08:51:28;;;;;;;4.60;3.40;;;;;;;20.25;50.23;101492.63;217604;1259;140287;-71
2024/04/11 08:56:31;;;;;;;3.40;3.00;;;;;;;20.35;50.06;101492.46;220419;1256;142025;-71
2024/04/11 09:01:33;;;;;;;4.70;3.30;;;;;;;20.61;49.73;101488.36;219038;1257;139444;-70
2024/04/11 09:06:36;;;;;;;3.80;3.10;;;;;;;20.60;48.53;101490.91;218190;1258;139545;-71
2024/04/11 09:11:42;;;;;;;5.70;3.30;;;;;;;20.55;48.69;101488.37;217445;1257;140511;-70
2024/04/11 09:16:44;;;;;;;4.40;3.60;;;;;;;20.21;47.72;101488.63;217481;1258;139780;-70
2024/04/11 09:21:46;;;;;;;5.00;2.70;;;;;;;19.37;46.72;101491.54;217813;1257;139503;-71
2024/04/11 09:26:49;;;;;;;4.20;2.70;;;;;;;19.12;47.17;101489.63;217746;1257;139739;-70
2024/04/11 09:31:56;;;;;;;3.30;2.80;;;;;;;19.18;47.12;101485.12;217365;1260;140566;-70
2024/04/11 09:36:59;;;;;;;6.00;2.40;;;;;;;19.51;48.17;101487.55;217526;1257;139573;-71
2024/04/11 09:42:06;;;;;;;4.20;2.70;;;;;;;19.91;48.04;101488.59;217389;1256;139883;-70
2024/04/11 09:47:09;;;;;;;4.40;2.00;;;;;;;20.04;47.48;101486.41;217649;1257;140229;-71
2024/04/11 09:52:15;;;;;;;3.20;3.00;;;;;;;19.59;46.75;101489.40;217572;1260;141001;-72
2024/04/11 09:57:18;;;;;;;3.80;3.00;;;;;;;19.18;46.31;101483.17;217594;1257;140487;-71
2024/04/11 10:02:21;;;;;;;3.30;2.60;;;;;;;18.95;46.89;101473.75;217322;1257;140800;-69
2024/04/11 10:07:25;;;;;;;5.20;3.30;;;;;;;18.71;46.90;101471.98;217787;1257;139706;-70
2024/04/11 10:12:38;;;;;;;2.50;2.30;;;;;;;18.91;46.85;101469.74;217372;1257;139463;-73
2024/04/11 10:17:41;;;;;;;3.90;2.60;;;;;;;18.84;46.68;101470.84;217457;1256;140340;-71
2024/04/11 10:22:44;;;;;;;3.20;2.20;;;;;;;18.68;46.93;101466.95;218253;1255;140481;-72
2024/04/11 10:27:51;;;;;;;3.70;2.10;;;;;;;19.08;46.86;101459.62;217422;1257;139608;-70
2024/04/11 10:32:52;;;;;;;3.00;2.70;;;;;;;19.34;46.62;101453.04;217413;1259;139612;-71
2024/04/11 10:37:55;;;;;;;3.00;2.60;;;;;;;19.58;46.57;101452.39;217483;1260;140409;-71
2024/04/11 10:43:12;;;;;;;2.30;2.10;;;;;;;19.73;45.79;101446.94;217628;1257;139900;-73
2024/04/11 10:48:15;;;;;;;2.40;2.00;;;;;;;19.86;46.08;101449.19;217474;1256;139765;-72
2024/04/11 10:53:20;;;;;;;2.50;2.30;;;;;;;20.22;46.19;101443.69;217867;1257;140340;-73
2024/04/11 10:58:27;;;;;;;2.90;2.70;;;;;;;20.43;45.94;101442.66;217536;1256;141848;-73
2024/04/11 11:08:44;;;;;;;3.50;2.50;;;;;;;20.83;44.93;101437.63;217664;1257;140502;-72
2024/04/11 11:13:47;;;;;;;4.50;2.60;;;;;;;20.64;44.42;101438.37;217787;1256;140183;-72
2024/04/11 11:18:52;;;;;;;5.80;2.60;;;;;;;20.30;43.98;101437.58;217353;1259;139972;-69
2024/04/11 11:23:59;;;;;;;3.00;2.10;;;;;;;19.63;43.98;101436.00;217859;1255;140907;-70
2024/04/11 11:29:07;;;;;;;2.40;2.20;;;;;;;19.75;44.73;101431.27;217605;1257;140991;-72
2024/04/11 11:34:10;;;;;;;2.60;2.40;;;;;;;19.83;44.13;101425.45;217901;1256;140038;-71
2024/04/11 11:39:18;;;;;;;3.40;3.00;;;;;;;19.65;44.29;101423.95;216844;1259;772701;-69
2024/04/11 11:44:21;;;;;;;3.80;2.70;;;;;;;19.72;44.20;101420.36;217501;1256;141067;-68
2024/04/11 11:49:23;;;;;;;17.90;11.30;;;;;;;19.40;44.34;101420.50;217614;1257;141351;-68
2024/04/11 11:54:28;;;;;;;3.70;2.70;;;;;;;19.01;44.27;101419.91;217463;1255;140956;-70
2024/04/11 11:59:30;;;;;;;3.40;3.00;;;;;;;18.96;44.67;101407.34;217580;1257;139542;-72
2024/04/11 12:04:32;;;;;;;3.20;2.90;;;;;;;18.74;45.04;101402.55;217717;1256;141123;-71
2024/04/11 12:09:43;;;;;;;3.50;3.10;;;;;;;18.55;45.38;101400.36;218764;1255;139680;-71
2024/04/11 12:14:45;;;;;;;3.30;2.50;;;;;;;18.65;45.49;101394.02;217905;1257;141973;-70
2024/04/11 12:19:47;;;;;;;2.40;2.20;;;;;;;18.66;45.41;101385.80;217855;1257;140285;-67
2024/04/11 12:24:52;;;;;;;7.50;3.00;;;;;;;18.97;45.28;101374.98;217601;1257;140900;-69
2024/04/11 12:30:04;;;;;;;3.90;3.00;;;;;;;19.34;45.10;101375.86;217446;1259;139763;-72
2024/04/11 12:35:05;;;;;;;4.20;3.30;;;;;;;19.59;45.15;101365.19;220491;1256;139964;-70
2024/04/11 12:40:13;;;;;;;3.40;3.10;;;;;;;19.79;45.03;101353.13;217532;1257;139691;-69
2024/04/11 12:45:18;;;;;;;2.20;1.90;;;;;;;19.84;45.03;101351.10;219586;1255;141514;-70
2024/04/11 12:50:28;;;;;;;3.80;3.40;;;;;;;19.84;44.46;101348.40;219353;1257;140266;-72
2024/04/11 12:55:30;;;;;;;8.90;4.20;;;;;;;19.80;44.22;101345.34;217514;1259;140578;-71
2024/04/11 13:00:34;;;;;;;4.90;3.90;;;;;;;19.69;43.85;101341.48;217857;1257;139177;-70
2024/04/11 13:05:44;;;;;;;11.50;4.20;;;;;;;19.62;43.67;101334.54;217545;1259;159947;-70
2024/04/11 13:10:49;;;;;;;3.70;3.30;;;;;;;19.68;43.64;101329.02;217253;1257;139730;-70
2024/04/11 13:15:54;;;;;;;5.00;4.00;;;;;;;19.62;43.44;101329.77;217173;1257;139351;-70
2024/04/11 13:20:57;;;;;;;4.90;4.20;;;;;;;19.52;43.12;101327.89;218230;1259;139934;-71
2024/04/11 13:26:02;;;;;;;5.90;4.00;;;;;;;19.30;42.97;101327.63;217487;1257;140569;-70
2024/04/11 13:31:10;;;;;;;5.10;4.20;;;;;;;19.30;43.39;101329.95;218234;1258;158141;-70
2024/04/11 13:36:13;;;;;;;4.60;3.40;;;;;;;19.28;43.24;101322.09;217739;1260;140727;-69
2024/04/11 13:41:15;;;;;;;6.60;3.70;;;;;;;19.23;43.13;101323.51;217395;1260;139929;-72
2024/04/11 13:46:19;;;;;;;4.40;3.60;;;;;;;19.18;42.69;101320.60;217507;1257;139949;-72
2024/04/11 13:51:29;;;;;;;8.00;3.00;;;;;;;19.13;42.99;101317.23;217480;1257;140792;-71
2024/04/11 13:56:38;;;;;;;4.30;3.00;;;;;;;19.11;42.76;101315.10;217195;1257;139980;-71
2024/04/11 14:01:43;;;;;;;3.90;3.50;;;;;;;19.04;42.85;101313.88;217332;1257;140207;-69
2024/04/11 14:11:53;;;;;;;6.50;4.00;;;;;;;18.94;42.42;101306.84;218332;1257;140021;-71
2024/04/11 14:16:56;;;;;;;9.10;3.70;;;;;;;18.87;42.56;101311.36;217672;1257;139916;-70
2024/04/11 14:22:08;;;;;;;4.70;2.80;;;;;;;18.84;42.31;101306.73;217506;1257;139578;-71
2024/04/11 14:27:09;;;;;;;7.20;2.80;;;;;;;18.79;42.13;101302.67;217509;1258;139547;-70
2024/04/11 14:32:23;;;;;;;8.00;2.60;;;;;;;18.72;42.14;101295.70;218489;1257;140029;-70
2024/04/11 14:42:26;;;;;;;4.20;2.80;;;;;;;18.60;41.97;101285.34;217579;1256;139664;-72
2024/04/11 14:47:31;;;;;;;3.00;2.30;;;;;;;18.53;41.79;101281.12;217413;1256;139687;-71
2024/04/11 14:52:33;;;;;;;2.40;1.90;;;;;;;18.48;41.86;101276.67;217746;1257;139207;-71
2024/04/11 14:57:37;;;;;;;5.40;3.00;;;;;;;18.30;41.71;101274.00;217433;1257;140771;-70
2024/04/11 15:02:38;;;;;;;4.00;1.90;;;;;;;18.23;41.83;101272.11;217225;1258;246223;-71
2024/04/11 15:07:41;;;;;;;3.60;1.70;;;;;;;18.21;41.89;101269.12;217302;1259;140813;-70
2024/04/11 15:12:43;;;;;;;5.00;2.50;;;;;;;18.21;41.79;101267.70;217472;1257;155463;-72
2024/04/11 15:17:58;;;;;;;8.30;2.40;;;;;;;18.18;41.94;101261.69;217454;1257;139557;-72
2024/04/11 15:23:01;;;;;;;4.10;1.90;;;;;;;18.14;41.75;101262.47;217315;1260;140093;-71
2024/04/11 15:28:06;;;;;;;2.90;1.90;;;;;;;18.01;41.52;101259.52;217482;1257;140577;-71
2024/04/11 15:33:11;;;;;;;3.40;2.00;;;;;;;17.82;41.49;101255.94;217658;1256;140501;-70
2024/04/11 15:43:37;;;;;;;4.80;2.50;;;;;;;17.62;42.10;101255.65;217536;1258;140934;-70
2024/04/11 15:48:41;;;;;;;2.70;2.00;;;;;;;17.63;42.42;101253.95;217605;1257;139533;-72
2024/04/11 15:53:59;;;;;;;2.00;1.80;;;;;;;17.56;42.37;101247.98;217302;1259;139939;-71
2024/04/11 15:59:17;;;;;;;3.60;2.20;;;;;;;17.46;42.34;101240.29;217506;1259;139486;-71
2024/04/11 16:04:23;;;;;;;4.50;3.10;;;;;;;17.26;42.10;101231.41;217563;1257;140152;-71
2024/04/11 16:09:36;;;;;;;5.80;2.90;;;;;;;17.11;42.45;101229.96;218075;1259;140043;-70
2024/04/11 16:14:43;;;;;;;2.70;2.50;;;;;;;17.04;42.80;101229.09;218271;1257;139739;-71
2024/04/11 16:19:44;;;;;;;5.10;2.10;;;;;;;16.94;43.05;101231.08;217708;1257;139692;-71
2024/04/11 16:24:49;;;;;;;2.50;2.30;;;;;;;16.84;43.08;101232.52;217746;1259;139538;-71
2024/04/11 16:29:55;;;;;;;3.70;2.10;;;;;;;16.70;43.15;101226.91;217409;1257;140274;-71
2024/04/11 16:34:58;;;;;;;6.10;3.10;;;;;;;16.57;43.51;101223.38;217172;1258;140524;-70
2024/04/11 16:40:05;;;;;;;4.60;3.00;;;;;;;16.40;43.56;101225.84;217797;1259;140659;-70
2024/04/11 16:50:09;;;;;;;3.60;1.70;;;;;;;16.09;44.20;101217.98;217325;1257;142473;-73
2024/04/11 16:55:47;;;;;;;3.00;1.40;;;;;;;15.93;44.53;101215.36;217507;1259;140189;-71
2024/04/11 17:00:41;;;;;;;1.90;1.70;;;;;;;15.79;44.90;101218.22;217193;1258;140562;-73
2024/04/11 17:05:47;;;;;;;2.00;1.50;;;;;;;15.66;44.98;101218.75;217477;1259;140524;-71
2024/04/11 17:10:55;;;;;;;2.00;1.80;;;;;;;15.53;45.24;101218.52;217658;1259;139403;-73
2024/04/11 17:16:15;;;;;;;3.20;1.50;;;;;;;15.35;45.81;101217.73;217471;1259;140619;-72
2024/04/11 17:21:18;;;;;;;3.90;1.40;;;;;;;15.12;46.90;101219.69;217501;1259;140060;-70
2024/04/11 17:26:19;;;;;;;6.90;1.40;;;;;;;14.85;47.48;101225.55;217446;1259;139070;-72
2024/04/11 17:31:32;;;;;;;3.50;1.60;;;;;;;14.58;48.17;101227.75;217584;1259;139322;-69
2024/04/11 17:36:34;;;;;;;2.10;1.30;;;;;;;14.32;49.19;101229.67;218151;1259;139860;-71
2024/04/11 17:42:13;;;;;;;6.00;1.50;;;;;;;14.03;49.88;101232.40;217801;1257;140470;-74
2024/04/11 17:47:31;;;;;;;2.00;1.20;;;;;;;13.75;50.91;101238.96;217458;1257;139661;-69
2024/04/11 17:57:47;;;;;;;1.60;1.10;;;;;;;13.24;52.50;101252.34;217637;1256;138927;-73
2024/04/11 18:02:55;;;;;;;1.50;1.20;;;;;;;12.95;53.03;101259.23;217405;1260;139687;-72
2024/04/11 18:08:10;;;;;;;3.70;1.50;;;;;;;12.67;53.96;101261.48;217765;1259;140594;-72
2024/04/11 18:13:22;;;;;;;7.30;1.80;;;;;;;12.43;54.10;101261.60;218085;1258;139836;-72
2024/04/11 18:18:45;;;;;;;1.70;1.60;;;;;;;12.22;55.02;101266.25;217582;1260;139589;-74
2024/04/11 18:23:52;;;;;;;3.00;2.10;;;;;;;12.03;55.29;101270.09;217888;1258;139404;-75
2024/04/11 18:28:56;;;;;;;2.80;1.60;;;;;;;11.83;55.71;101272.16;217859;1262;140055;-72
2024/04/11 18:33:59;;;;;;;2.00;1.80;;;;;;;11.53;56.28;101274.15;217888;1260;138932;-74
2024/04/11 18:39:01;;;;;;;2.20;1.30;;;;;;;11.20;57.18;101271.00;217333;1261;142037;-72
2024/04/11 18:44:08;;;;;;;2.80;2.40;;;;;;;10.97;58.33;101276.15;217338;1256;139903;-72
2024/04/11 18:49:17;;;;;;;8.80;4.10;;;;;;;10.87;58.83;101272.20;217717;1259;139379;-71
2024/04/11 18:54:22;;;;;;;23.90;6.40;;;;;;;10.72;58.98;101275.55;217413;1259;139447;-72
2024/04/11 18:59:24;;;;;;;16.40;6.20;;;;;;;10.47;59.42;101275.54;217389;1259;139921;-71
2024/04/11 19:04:33;;;;;;;15.50;4.70;;;;;;;10.21;59.65;101280.03;218037;1259;142112;-74
2024/04/11 19:10:26;;;;;;;17.90;6.00;;;;;;;9.98;60.20;101278.98;217833;1256;142547;-71
2024/04/11 19:15:06;;;;;;;23.20;5.50;;;;;;;9.80;60.92;101279.86;217327;1256;139662;-71
2024/04/11 19:20:19;;;;;;;20.60;6.20;;;;;;;9.66;61.30;101283.56;217469;1259;139477;-74
2024/04/11 19:25:27;;;;;;;19.10;5.20;;;;;;;9.48;61.63;101283.63;218039;1260;139190;-71
2024/04/11 19:30:36;;;;;;;24.50;8.30;;;;;;;9.32;62.08;101279.45;217538;1257;139186;-71
2024/04/11 19:35:49;;;;;;;64.20;17.00;;;;;;;9.18;62.43;101273.40;218204;1256;139554;-70
2024/04/11 19:40:56;;;;;;;105.60;28.50;;;;;;;9.06;62.85;101268.08;217648;1257;140231;-71
2024/04/11 19:45:57;;;;;;;56.10;17.00;;;;;;;8.97;63.23;101269.93;218167;1256;142086;-71
2024/04/11 19:50:59;;;;;;;35.40;12.10;;;;;;;8.89;63.63;101272.30;218125;1259;140203;-72
2024/04/11 19:56:18;;;;;;;15.10;6.20;;;;;;;8.84;64.03;101273.17;217444;1261;140783;-73
2024/04/11 20:01:21;;;;;;;13.00;5.80;;;;;;;8.76;64.30;101265.75;218694;1259;141206;-71
2024/04/11 20:06:23;;;;;;;36.50;14.30;;;;;;;8.71;64.55;101265.52;219188;1256;141104;-73
2024/04/11 20:11:32;;;;;;;34.30;15.10;;;;;;;8.67;65.08;101262.56;219296;1260;140867;-72
2024/04/11 20:16:38;;;;;;;26.40;13.30;;;;;;;8.67;65.26;101258.72;217365;1258;140455;-71
2024/04/11 20:21:44;;;;;;;17.20;9.30;;;;;;;8.65;65.60;101261.02;217703;1260;141179;-72
2024/04/11 20:26:53;;;;;;;18.20;6.30;;;;;;;8.61;65.82;101265.51;217743;1259;139937;-73
2024/04/11 20:31:55;;;;;;;14.90;7.30;;;;;;;8.50;65.85;101261.98;218169;1257;141662;-69
2024/04/11 20:37:02;;;;;;;43.30;13.20;;;;;;;8.36;66.29;101261.55;217605;1261;139977;-70
2024/04/11 20:42:41;;;;;;;35.20;13.80;;;;;;;8.23;66.87;101258.09;217351;1257;140236;-71
2024/04/11 20:47:48;;;;;;;14.40;7.50;;;;;;;8.14;67.29;101257.43;217708;1257;141362;-71
2024/04/11 21:35:39;;;;;;;25.00;10.70;;;;;;;7.77;69.88;101264.61;217478;1256;141024;-70
2024/04/11 21:40:42;;;;;;;21.90;10.10;;;;;;;7.76;70.20;101267.24;217343;1260;141077;-68
2024/04/11 21:45:52;;;;;;;27.20;9.40;;;;;;;7.76;70.89;101270.72;218539;1258;140218;-70
2024/04/11 21:50:55;;;;;;;23.50;10.60;;;;;;;7.76;71.08;101270.05;219730;1260;140680;-70
2024/04/11 21:55:56;;;;;;;14.00;9.30;;;;;;;7.80;71.41;101268.73;217056;1261;142143;-71
2024/04/11 22:01:02;;;;;;;15.40;9.40;;;;;;;7.80;71.49;101275.14;217551;1259;142944;-70
2024/04/11 22:06:03;;;;;;;18.60;9.10;;;;;;;7.78;71.43;101276.51;217291;1262;140913;-70
2024/04/11 22:11:06;;;;;;;16.30;11.60;;;;;;;7.79;71.83;101277.30;217563;1259;140441;-69
2024/04/11 22:16:09;;;;;;;22.70;10.90;;;;;;;7.80;72.22;101275.63;217313;1259;142070;-70
2024/04/11 22:21:22;;;;;;;13.40;9.00;;;;;;;7.80;72.61;101272.42;217387;1257;140226;-72
2024/04/11 22:26:23;;;;;;;16.50;10.10;;;;;;;7.83;72.74;101275.08;217735;1257;140105;-69
2024/04/11 22:31:26;;;;;;;19.30;11.60;;;;;;;7.82;72.76;101277.64;217541;1262;141151;-69
2024/04/11 22:36:28;;;;;;;15.90;11.50;;;;;;;7.84;72.80;101277.63;217784;1263;140435;-70
2024/04/11 22:41:32;;;;;;;16.80;10.50;;;;;;;7.88;73.17;101281.45;217323;1257;140877;-70
2024/04/11 22:46:37;;;;;;;14.40;10.20;;;;;;;7.91;73.38;101284.77;217245;1257;140846;-70
2024/04/11 22:51:42;;;;;;;15.70;8.40;;;;;;;7.95;73.80;101288.71;217249;1259;140421;-69
2024/04/11 22:56:45;;;;;;;16.80;10.20;;;;;;;7.95;74.06;101294.45;217106;1264;139977;-69
2024/04/11 23:07:29;;;;;;;17.50;11.30;;;;;;;8.06;74.74;101295.51;217860;1261;139803;-70
2024/04/11 23:12:37;;;;;;;16.20;10.90;;;;;;;8.12;74.84;101294.86;217483;1259;141230;-70
2024/04/11 23:17:41;;;;;;;21.00;11.80;;;;;;;8.18;74.73;101292.63;217283;1261;141585;-68
2024/04/11 23:22:44;;;;;;;15.90;9.20;;;;;;;8.21;75.04;101289.34;217326;1263;140462;-72
2024/04/11 23:27:51;;;;;;;17.10;12.10;;;;;;;8.22;75.02;101296.47;218090;1261;139713;-70
2024/04/11 23:32:57;;;;;;;15.10;9.70;;;;;;;8.26;75.46;101301.36;217528;1259;140385;-71
2024/04/11 23:38:06;;;;;;;14.40;9.60;;;;;;;8.34;75.62;101300.41;218145;1262;441290;-71
2024/04/11 23:43:11;;;;;;;14.90;9.80;;;;;;;8.46;75.94;101294.88;217867;1261;140167;-70
2024/04/11 23:48:18;;;;;;;16.10;8.80;;;;;;;8.58;76.04;101291.72;217521;1262;140280;-70
2024/04/11 23:53:27;;;;;;;15.20;9.70;;;;;;;8.69;76.48;101292.98;217394;1262;141151;-71
2024/04/11 23:58:41;;;;;;;20.80;9.80;;;;;;;8.81;76.51;101297.73;217272;1258;141107;-70
